sensor_id;sensor_type;location;lat;lon;timestamp;temperature;humidity
47576;DHT22;33304;52.456;13.328;2023-04-03T00:02:10;2.50;24.00
47576;DHT22;33304;52.456;13.328;2023-04-03T00:04:37;2.50;24.20
47576;DHT22;33304;52.456;13.328;2023-04-03T00:07:05;2.50;24.00
47576;DHT22;33304;52.456;13.328;2023-04-03T00:09:32;2.50;24.20
47576;DHT22;33304;52.456;13.328;2023-04-03T00:11:59;2.50;23.80
47576;DHT22;33304;52.456;13.328;2023-04-03T00:14:26;2.50;24.00
47576;DHT22;33304;52.456;13.328;2023-04-03T00:16:54;2.50;23.90
47576;DHT22;33304;52.456;13.328;2023-04-03T00:19:21;2.40;23.80
47576;DHT22;33304;52.456;13.328;2023-04-03T00:21:48;2.40;23.80
47576;DHT22;33304;52.456;13.328;2023-04-03T00:24:16;2.50;23.80
47576;DHT22;33304;52.456;13.328;2023-04-03T00:26:43;2.40;23.90
47576;DHT22;33304;52.456;13.328;2023-04-03T00:29:10;2.50;23.90
47576;DHT22;33304;52.456;13.328;2023-04-03T00:31:37;2.50;23.70
47576;DHT22;33304;52.456;13.328;2023-04-03T00:34:05;2.50;23.20
47576;DHT22;33304;52.456;13.328;2023-04-03T00:36:32;2.40;23.00
47576;DHT22;33304;52.456;13.328;2023-04-03T00:38:59;2.40;22.80
47576;DHT22;33304;52.456;13.328;2023-04-03T00:41:27;2.40;22.60
47576;DHT22;33304;52.456;13.328;2023-04-03T00:43:54;2.30;23.00
47576;DHT22;33304;52.456;13.328;2023-04-03T00:46:21;2.40;22.50
47576;DHT22;33304;52.456;13.328;2023-04-03T00:48:49;2.40;22.90
47576;DHT22;33304;52.456;13.328;2023-04-03T00:51:19;2.40;23.20
47576;DHT22;33304;52.456;13.328;2023-04-03T00:53:51;2.40;22.50
47576;DHT22;33304;52.456;13.328;2023-04-03T00:56:24;2.30;22.50
47576;DHT22;33304;52.456;13.328;2023-04-03T00:58:55;2.30;23.00
47576;DHT22;33304;52.456;13.328;2023-04-03T01:01:27;2.40;23.00
47576;DHT22;33304;52.456;13.328;2023-04-03T01:03:55;2.30;23.10
47576;DHT22;33304;52.456;13.328;2023-04-03T01:06:26;2.30;22.90
47576;DHT22;33304;52.456;13.328;2023-04-03T01:08:57;2.30;23.30
47576;DHT22;33304;52.456;13.328;2023-04-03T01:11:24;2.30;22.70
47576;DHT22;33304;52.456;13.328;2023-04-03T01:13:53;2.20;23.30
47576;DHT22;33304;52.456;13.328;2023-04-03T01:16:20;2.20;23.50
47576;DHT22;33304;52.456;13.328;2023-04-03T01:18:48;2.20;23.50
47576;DHT22;33304;52.456;13.328;2023-04-03T01:21:39;2.20;23.60
47576;DHT22;33304;52.456;13.328;2023-04-03T01:24:25;2.20;23.30
47576;DHT22;33304;52.456;13.328;2023-04-03T01:26:54;2.20;23.50
47576;DHT22;33304;52.456;13.328;2023-04-03T01:29:23;2.20;23.40
47576;DHT22;33304;52.456;13.328;2023-04-03T01:31:54;2.20;23.30
47576;DHT22;33304;52.456;13.328;2023-04-03T01:34:22;2.10;23.60
47576;DHT22;33304;52.456;13.328;2023-04-03T01:36:50;2.20;23.60
47576;DHT22;33304;52.456;13.328;2023-04-03T01:39:18;2.20;23.70
47576;DHT22;33304;52.456;13.328;2023-04-03T01:41:45;2.20;23.60
47576;DHT22;33304;52.456;13.328;2023-04-03T01:44:19;2.10;23.80
47576;DHT22;33304;52.456;13.328;2023-04-03T01:46:46;2.10;23.80
47576;DHT22;33304;52.456;13.328;2023-04-03T01:49:15;2.10;23.80
47576;DHT22;33304;52.456;13.328;2023-04-03T01:51:42;2.10;24.10
47576;DHT22;33304;52.456;13.328;2023-04-03T01:54:09;2.10;24.10
47576;DHT22;33304;52.456;13.328;2023-04-03T01:56:36;2.10;24.00
47576;DHT22;33304;52.456;13.328;2023-04-03T01:59:04;2.20;24.00
47576;DHT22;33304;52.456;13.328;2023-04-03T02:01:33;2.20;24.20
47576;DHT22;33304;52.456;13.328;2023-04-03T02:04:00;2.10;24.00
47576;DHT22;33304;52.456;13.328;2023-04-03T02:06:28;2.00;24.30
47576;DHT22;33304;52.456;13.328;2023-04-03T02:08:55;2.10;24.10
47576;DHT22;33304;52.456;13.328;2023-04-03T02:11:22;2.10;24.30
47576;DHT22;33304;52.456;13.328;2023-04-03T02:13:49;2.10;24.60
47576;DHT22;33304;52.456;13.328;2023-04-03T02:16:17;2.10;24.60
47576;DHT22;33304;52.456;13.328;2023-04-03T02:18:44;2.00;24.60
47576;DHT22;33304;52.456;13.328;2023-04-03T02:21:11;2.00;25.00
47576;DHT22;33304;52.456;13.328;2023-04-03T02:23:39;2.10;25.00
47576;DHT22;33304;52.456;13.328;2023-04-03T02:26:08;2.00;25.40
47576;DHT22;33304;52.456;13.328;2023-04-03T02:28:36;2.00;25.50
47576;DHT22;33304;52.456;13.328;2023-04-03T02:31:04;2.00;25.60
47576;DHT22;33304;52.456;13.328;2023-04-03T02:33:33;1.90;25.90
47576;DHT22;33304;52.456;13.328;2023-04-03T02:36:03;1.90;26.40
47576;DHT22;33304;52.456;13.328;2023-04-03T02:38:31;1.90;26.20
47576;DHT22;33304;52.456;13.328;2023-04-03T02:41:01;2.00;25.80
47576;DHT22;33304;52.456;13.328;2023-04-03T02:43:28;1.90;26.40
47576;DHT22;33304;52.456;13.328;2023-04-03T02:45:55;1.90;26.50
47576;DHT22;33304;52.456;13.328;2023-04-03T02:48:23;1.90;26.60
47576;DHT22;33304;52.456;13.328;2023-04-03T02:50:51;1.90;26.60
47576;DHT22;33304;52.456;13.328;2023-04-03T02:53:18;1.90;26.80
47576;DHT22;33304;52.456;13.328;2023-04-03T02:55:46;1.90;26.70
47576;DHT22;33304;52.456;13.328;2023-04-03T02:58:15;1.90;26.70
47576;DHT22;33304;52.456;13.328;2023-04-03T03:00:42;1.90;26.80
47576;DHT22;33304;52.456;13.328;2023-04-03T03:03:09;1.90;26.70
47576;DHT22;33304;52.456;13.328;2023-04-03T03:05:36;1.70;26.60
47576;DHT22;33304;52.456;13.328;2023-04-03T03:08:03;1.70;26.60
47576;DHT22;33304;52.456;13.328;2023-04-03T03:10:30;1.80;26.70
47576;DHT22;33304;52.456;13.328;2023-04-03T03:12:57;1.80;26.70
47576;DHT22;33304;52.456;13.328;2023-04-03T03:15:26;1.80;26.70
47576;DHT22;33304;52.456;13.328;2023-04-03T03:17:53;1.80;26.70
47576;DHT22;33304;52.456;13.328;2023-04-03T03:20:20;1.80;26.70
47576;DHT22;33304;52.456;13.328;2023-04-03T03:22:47;1.70;26.60
47576;DHT22;33304;52.456;13.328;2023-04-03T03:25:14;1.70;26.60
47576;DHT22;33304;52.456;13.328;2023-04-03T03:27:41;1.70;26.60
47576;DHT22;33304;52.456;13.328;2023-04-03T03:30:09;1.60;26.60
47576;DHT22;33304;52.456;13.328;2023-04-03T03:32:38;1.70;26.70
47576;DHT22;33304;52.456;13.328;2023-04-03T03:35:05;1.70;26.80
47576;DHT22;33304;52.456;13.328;2023-04-03T03:37:32;1.70;27.00
47576;DHT22;33304;52.456;13.328;2023-04-03T03:40:00;1.60;26.90
47576;DHT22;33304;52.456;13.328;2023-04-03T03:42:28;1.60;26.70
47576;DHT22;33304;52.456;13.328;2023-04-03T03:44:55;1.60;26.60
47576;DHT22;33304;52.456;13.328;2023-04-03T03:47:22;1.70;27.20
47576;DHT22;33304;52.456;13.328;2023-04-03T03:49:51;1.60;27.10
47576;DHT22;33304;52.456;13.328;2023-04-03T03:52:19;1.60;26.90
47576;DHT22;33304;52.456;13.328;2023-04-03T03:54:46;1.70;26.60
47576;DHT22;33304;52.456;13.328;2023-04-03T03:57:15;1.60;26.60
47576;DHT22;33304;52.456;13.328;2023-04-03T03:59:43;1.60;27.40
47576;DHT22;33304;52.456;13.328;2023-04-03T04:02:10;1.60;27.20
47576;DHT22;33304;52.456;13.328;2023-04-03T04:04:38;1.50;27.50
47576;DHT22;33304;52.456;13.328;2023-04-03T04:07:06;1.50;27.80
47576;DHT22;33304;52.456;13.328;2023-04-03T04:09:34;1.60;27.70
47576;DHT22;33304;52.456;13.328;2023-04-03T04:12:02;1.50;27.70
47576;DHT22;33304;52.456;13.328;2023-04-03T04:14:31;1.60;27.90
47576;DHT22;33304;52.456;13.328;2023-04-03T04:16:59;1.50;27.80
47576;DHT22;33304;52.456;13.328;2023-04-03T04:19:28;1.50;27.90
47576;DHT22;33304;52.456;13.328;2023-04-03T04:21:55;1.50;27.80
47576;DHT22;33304;52.456;13.328;2023-04-03T04:24:23;1.50;27.80
47576;DHT22;33304;52.456;13.328;2023-04-03T04:26:53;1.50;27.90
47576;DHT22;33304;52.456;13.328;2023-04-03T04:29:22;1.50;27.90
47576;DHT22;33304;52.456;13.328;2023-04-03T04:31:50;1.50;28.20
47576;DHT22;33304;52.456;13.328;2023-04-03T04:34:18;1.50;28.30
47576;DHT22;33304;52.456;13.328;2023-04-03T04:36:46;1.50;28.50
47576;DHT22;33304;52.456;13.328;2023-04-03T04:39:13;1.40;29.00
47576;DHT22;33304;52.456;13.328;2023-04-03T04:41:42;1.50;28.70
47576;DHT22;33304;52.456;13.328;2023-04-03T04:44:09;1.50;28.80
47576;DHT22;33304;52.456;13.328;2023-04-03T04:46:37;1.40;28.80
47576;DHT22;33304;52.456;13.328;2023-04-03T04:49:05;1.50;28.80
47576;DHT22;33304;52.456;13.328;2023-04-03T04:51:33;1.50;28.50
47576;DHT22;33304;52.456;13.328;2023-04-03T04:54:00;1.50;28.60
47576;DHT22;33304;52.456;13.328;2023-04-03T04:56:27;1.50;28.90
47576;DHT22;33304;52.456;13.328;2023-04-03T04:58:57;1.50;29.00
47576;DHT22;33304;52.456;13.328;2023-04-03T05:01:26;1.50;29.20
47576;DHT22;33304;52.456;13.328;2023-04-03T05:04:07;1.50;28.90
47576;DHT22;33304;52.456;13.328;2023-04-03T05:06:35;1.50;29.40
47576;DHT22;33304;52.456;13.328;2023-04-03T05:09:05;1.50;29.30
47576;DHT22;33304;52.456;13.328;2023-04-03T05:11:33;1.60;29.10
47576;DHT22;33304;52.456;13.328;2023-04-03T05:14:02;1.60;29.30
47576;DHT22;33304;52.456;13.328;2023-04-03T05:16:31;1.70;29.00
47576;DHT22;33304;52.456;13.328;2023-04-03T05:18:58;1.80;28.80
47576;DHT22;33304;52.456;13.328;2023-04-03T05:21:26;1.80;28.90
47576;DHT22;33304;52.456;13.328;2023-04-03T05:23:58;1.80;28.60
47576;DHT22;33304;52.456;13.328;2023-04-03T05:26:30;1.70;28.60
47576;DHT22;33304;52.456;13.328;2023-04-03T05:28:58;1.80;28.60
47576;DHT22;33304;52.456;13.328;2023-04-03T05:31:27;1.70;29.10
47576;DHT22;33304;52.456;13.328;2023-04-03T05:33:55;1.70;29.20
47576;DHT22;33304;52.456;13.328;2023-04-03T05:36:23;1.80;29.10
47576;DHT22;33304;52.456;13.328;2023-04-03T05:38:55;1.80;28.80
47576;DHT22;33304;52.456;13.328;2023-04-03T05:41:23;1.90;28.60
47576;DHT22;33304;52.456;13.328;2023-04-03T05:43:50;1.90;28.40
47576;DHT22;33304;52.456;13.328;2023-04-03T05:46:20;1.90;28.10
47576;DHT22;33304;52.456;13.328;2023-04-03T05:48:53;2.00;28.00
47576;DHT22;33304;52.456;13.328;2023-04-03T05:51:25;2.10;27.70
47576;DHT22;33304;52.456;13.328;2023-04-03T05:54:03;2.00;28.80
47576;DHT22;33304;52.456;13.328;2023-04-03T05:56:32;2.10;28.10
47576;DHT22;33304;52.456;13.328;2023-04-03T05:58:59;2.20;27.40
47576;DHT22;33304;52.456;13.328;2023-04-03T06:01:27;2.10;27.10
47576;DHT22;33304;52.456;13.328;2023-04-03T06:03:57;2.20;27.00
47576;DHT22;33304;52.456;13.328;2023-04-03T06:06:25;2.20;26.90
47576;DHT22;33304;52.456;13.328;2023-04-03T06:08:52;2.20;27.00
47576;DHT22;33304;52.456;13.328;2023-04-03T06:11:19;2.30;27.60
47576;DHT22;33304;52.456;13.328;2023-04-03T06:13:48;2.30;27.00
47576;DHT22;33304;52.456;13.328;2023-04-03T06:16:17;2.30;27.00
47576;DHT22;33304;52.456;13.328;2023-04-03T06:18:44;2.40;27.10
47576;DHT22;33304;52.456;13.328;2023-04-03T06:21:13;2.50;26.70
47576;DHT22;33304;52.456;13.328;2023-04-03T06:23:40;2.50;26.80
47576;DHT22;33304;52.456;13.328;2023-04-03T06:26:07;2.50;26.10
47576;DHT22;33304;52.456;13.328;2023-04-03T06:28:34;2.60;25.80
47576;DHT22;33304;52.456;13.328;2023-04-03T06:31:01;2.60;25.90
47576;DHT22;33304;52.456;13.328;2023-04-03T06:33:28;2.60;25.40
47576;DHT22;33304;52.456;13.328;2023-04-03T06:35:57;2.70;25.10
47576;DHT22;33304;52.456;13.328;2023-04-03T06:38:26;2.70;24.80
47576;DHT22;33304;52.456;13.328;2023-04-03T06:40:53;2.80;24.70
47576;DHT22;33304;52.456;13.328;2023-04-03T06:43:20;2.80;24.30
47576;DHT22;33304;52.456;13.328;2023-04-03T06:45:47;2.90;23.80
47576;DHT22;33304;52.456;13.328;2023-04-03T06:48:14;3.10;22.90
47576;DHT22;33304;52.456;13.328;2023-04-03T06:50:41;3.10;21.80
47576;DHT22;33304;52.456;13.328;2023-04-03T06:53:09;3.10;21.10
47576;DHT22;33304;52.456;13.328;2023-04-03T06:55:38;3.20;21.00
47576;DHT22;33304;52.456;13.328;2023-04-03T06:58:05;3.20;21.00
47576;DHT22;33304;52.456;13.328;2023-04-03T07:00:32;3.30;20.90
47576;DHT22;33304;52.456;13.328;2023-04-03T07:02:59;3.40;21.30
47576;DHT22;33304;52.456;13.328;2023-04-03T07:05:26;3.60;22.10
47576;DHT22;33304;52.456;13.328;2023-04-03T07:07:54;3.70;21.40
47576;DHT22;33304;52.456;13.328;2023-04-03T07:10:21;3.90;20.80
47576;DHT22;33304;52.456;13.328;2023-04-03T07:12:49;4.30;22.30
47576;DHT22;33304;52.456;13.328;2023-04-03T07:15:17;4.50;19.20
47576;DHT22;33304;52.456;13.328;2023-04-03T07:17:44;4.50;19.20
47576;DHT22;33304;52.456;13.328;2023-04-03T07:20:11;4.60;19.20
47576;DHT22;33304;52.456;13.328;2023-04-03T07:22:38;4.50;17.50
47576;DHT22;33304;52.456;13.328;2023-04-03T07:25:07;4.40;17.40
47576;DHT22;33304;52.456;13.328;2023-04-03T07:27:34;4.30;16.50
47576;DHT22;33304;52.456;13.328;2023-04-03T07:30:03;4.30;15.40
47576;DHT22;33304;52.456;13.328;2023-04-03T07:32:30;4.30;14.10
47576;DHT22;33304;52.456;13.328;2023-04-03T07:34:57;4.50;15.00
47576;DHT22;33304;52.456;13.328;2023-04-03T07:37:24;4.70;14.50
47576;DHT22;33304;52.456;13.328;2023-04-03T07:39:51;4.70;13.20
47576;DHT22;33304;52.456;13.328;2023-04-03T07:42:18;4.60;13.20
47576;DHT22;33304;52.456;13.328;2023-04-03T07:44:46;4.70;13.00
47576;DHT22;33304;52.456;13.328;2023-04-03T07:47:14;4.70;13.50
47576;DHT22;33304;52.456;13.328;2023-04-03T07:49:43;4.70;12.80
47576;DHT22;33304;52.456;13.328;2023-04-03T07:52:10;4.80;12.60
47576;DHT22;33304;52.456;13.328;2023-04-03T07:54:37;4.80;11.90
47576;DHT22;33304;52.456;13.328;2023-04-03T07:57:05;4.70;12.00
47576;DHT22;33304;52.456;13.328;2023-04-03T07:59:32;4.50;12.40
47576;DHT22;33304;52.456;13.328;2023-04-03T08:01:59;4.50;12.50
47576;DHT22;33304;52.456;13.328;2023-04-03T08:04:28;4.40;12.30
47576;DHT22;33304;52.456;13.328;2023-04-03T08:06:56;4.50;12.30
47576;DHT22;33304;52.456;13.328;2023-04-03T08:09:23;4.50;13.10
47576;DHT22;33304;52.456;13.328;2023-04-03T08:11:50;4.50;12.00
47576;DHT22;33304;52.456;13.328;2023-04-03T08:14:19;4.50;11.70
47576;DHT22;33304;52.456;13.328;2023-04-03T08:16:47;4.60;11.50
47576;DHT22;33304;52.456;13.328;2023-04-03T08:19:15;4.60;10.70
47576;DHT22;33304;52.456;13.328;2023-04-03T08:21:45;4.60;11.60
47576;DHT22;33304;52.456;13.328;2023-04-03T08:24:12;4.80;11.80
47576;DHT22;33304;52.456;13.328;2023-04-03T08:26:39;4.80;10.60
47576;DHT22;33304;52.456;13.328;2023-04-03T08:29:07;4.80;11.30
47576;DHT22;33304;52.456;13.328;2023-04-03T08:31:34;4.90;11.20
47576;DHT22;33304;52.456;13.328;2023-04-03T08:34:01;4.90;10.70
47576;DHT22;33304;52.456;13.328;2023-04-03T08:36:29;4.90;11.10
47576;DHT22;33304;52.456;13.328;2023-04-03T08:38:58;4.90;11.20
47576;DHT22;33304;52.456;13.328;2023-04-03T08:41:29;5.00;12.00
47576;DHT22;33304;52.456;13.328;2023-04-03T08:44:10;5.10;11.20
47576;DHT22;33304;52.456;13.328;2023-04-03T08:46:48;5.00;11.10
47576;DHT22;33304;52.456;13.328;2023-04-03T08:49:24;5.00;11.40
47576;DHT22;33304;52.456;13.328;2023-04-03T08:51:52;5.10;10.60
47576;DHT22;33304;52.456;13.328;2023-04-03T08:54:27;5.10;9.90
47576;DHT22;33304;52.456;13.328;2023-04-03T08:56:56;5.10;9.90
47576;DHT22;33304;52.456;13.328;2023-04-03T08:59:28;5.20;10.00
47576;DHT22;33304;52.456;13.328;2023-04-03T09:01:57;5.20;10.00
47576;DHT22;33304;52.456;13.328;2023-04-03T09:04:26;5.30;10.00
47576;DHT22;33304;52.456;13.328;2023-04-03T09:06:58;5.40;10.10
47576;DHT22;33304;52.456;13.328;2023-04-03T09:09:34;5.40;10.10
47576;DHT22;33304;52.456;13.328;2023-04-03T09:12:10;5.40;10.10
47576;DHT22;33304;52.456;13.328;2023-04-03T09:14:43;5.40;10.10
47576;DHT22;33304;52.456;13.328;2023-04-03T09:17:15;5.20;10.00
47576;DHT22;33304;52.456;13.328;2023-04-03T09:19:51;5.20;10.00
47576;DHT22;33304;52.456;13.328;2023-04-03T09:22:24;5.30;10.00
47576;DHT22;33304;52.456;13.328;2023-04-03T09:24:58;5.50;9.60
47576;DHT22;33304;52.456;13.328;2023-04-03T09:27:26;5.70;8.60
47576;DHT22;33304;52.456;13.328;2023-04-03T09:29:54;6.10;7.30
47576;DHT22;33304;52.456;13.328;2023-04-03T09:32:26;6.30;5.70
47576;DHT22;33304;52.456;13.328;2023-04-03T09:34:55;6.70;7.40
47576;DHT22;33304;52.456;13.328;2023-04-03T09:37:41;7.00;5.10
47576;DHT22;33304;52.456;13.328;2023-04-03T09:40:35;6.90;4.10
47576;DHT22;33304;52.456;13.328;2023-04-03T09:43:21;6.70;4.90
47576;DHT22;33304;52.456;13.328;2023-04-03T09:45:50;6.60;4.40
47576;DHT22;33304;52.456;13.328;2023-04-03T09:48:19;6.70;4.30
47576;DHT22;33304;52.456;13.328;2023-04-03T09:50:59;6.60;3.80
47576;DHT22;33304;52.456;13.328;2023-04-03T09:53:30;6.60;3.40
47576;DHT22;33304;52.456;13.328;2023-04-03T09:56:00;6.60;3.70
47576;DHT22;33304;52.456;13.328;2023-04-03T09:58:31;6.80;3.90
47576;DHT22;33304;52.456;13.328;2023-04-03T10:01:00;6.90;2.70
47576;DHT22;33304;52.456;13.328;2023-04-03T10:03:30;6.90;3.50
47576;DHT22;33304;52.456;13.328;2023-04-03T10:05:58;7.00;2.80
47576;DHT22;33304;52.456;13.328;2023-04-03T10:08:28;6.80;2.30
47576;DHT22;33304;52.456;13.328;2023-04-03T10:11:11;6.70;3.50
47576;DHT22;33304;52.456;13.328;2023-04-03T10:13:54;6.70;3.30
47576;DHT22;33304;52.456;13.328;2023-04-03T10:16:26;6.70;4.10
47576;DHT22;33304;52.456;13.328;2023-04-03T10:21:46;6.80;4.60
47576;DHT22;33304;52.456;13.328;2023-04-03T10:24:20;6.80;3.70
47576;DHT22;33304;52.456;13.328;2023-04-03T10:26:56;6.80;3.50
47576;DHT22;33304;52.456;13.328;2023-04-03T10:29:34;6.70;4.40
47576;DHT22;33304;52.456;13.328;2023-04-03T10:32:25;6.70;5.00
47576;DHT22;33304;52.456;13.328;2023-04-03T10:35:02;6.70;4.60
47576;DHT22;33304;52.456;13.328;2023-04-03T10:37:40;6.70;3.80
47576;DHT22;33304;52.456;13.328;2023-04-03T10:40:18;6.60;4.20
47576;DHT22;33304;52.456;13.328;2023-04-03T10:42:51;6.90;4.80
47576;DHT22;33304;52.456;13.328;2023-04-03T10:45:24;6.90;2.10
47576;DHT22;33304;52.456;13.328;2023-04-03T10:48:02;6.80;3.30
47576;DHT22;33304;52.456;13.328;2023-04-03T10:50:43;6.60;2.70
47576;DHT22;33304;52.456;13.328;2023-04-03T10:53:18;6.70;2.30
47576;DHT22;33304;52.456;13.328;2023-04-03T10:55:52;6.80;1.70
47576;DHT22;33304;52.456;13.328;2023-04-03T10:58:28;6.90;2.70
47576;DHT22;33304;52.456;13.328;2023-04-03T11:01:01;7.00;2.00
47576;DHT22;33304;52.456;13.328;2023-04-03T11:03:31;7.20;2.50
47576;DHT22;33304;52.456;13.328;2023-04-03T11:06:02;7.50;1.40
47576;DHT22;33304;52.456;13.328;2023-04-03T11:08:36;7.60;1.50
47576;DHT22;33304;52.456;13.328;2023-04-03T11:11:09;7.80;1.60
47576;DHT22;33304;52.456;13.328;2023-04-03T11:13:43;7.90;1.70
47576;DHT22;33304;52.456;13.328;2023-04-03T11:16:15;7.70;1.60
47576;DHT22;33304;52.456;13.328;2023-04-03T11:18:48;7.50;1.40
47576;DHT22;33304;52.456;13.328;2023-04-03T11:21:21;7.60;1.50
47576;DHT22;33304;52.456;13.328;2023-04-03T11:23:51;7.80;1.00
47576;DHT22;33304;52.456;13.328;2023-04-03T11:26:21;7.70;1.00
47576;DHT22;33304;52.456;13.328;2023-04-03T11:28:58;7.70;1.60
47576;DHT22;33304;52.456;13.328;2023-04-03T11:31:36;7.60;1.50
47576;DHT22;33304;52.456;13.328;2023-04-03T11:34:19;7.50;1.40
47576;DHT22;33304;52.456;13.328;2023-04-03T11:36:50;7.70;1.60
47576;DHT22;33304;52.456;13.328;2023-04-03T11:39:22;7.60;1.50
47576;DHT22;33304;52.456;13.328;2023-04-03T11:41:50;7.80;1.60
47576;DHT22;33304;52.456;13.328;2023-04-03T11:44:33;7.90;1.70
47576;DHT22;33304;52.456;13.328;2023-04-03T11:47:02;7.40;2.20
47576;DHT22;33304;52.456;13.328;2023-04-03T11:49:51;7.20;3.00
47576;DHT22;33304;52.456;13.328;2023-04-03T11:52:56;7.20;4.60
47576;DHT22;33304;52.456;13.328;2023-04-03T11:55:43;7.40;3.00
47576;DHT22;33304;52.456;13.328;2023-04-03T11:58:15;7.40;3.70
47576;DHT22;33304;52.456;13.328;2023-04-03T12:00:52;7.30;2.70
47576;DHT22;33304;52.456;13.328;2023-04-03T12:03:31;7.40;2.70
47576;DHT22;33304;52.456;13.328;2023-04-03T12:12:36;7.80;2.30
47576;DHT22;33304;52.456;13.328;2023-04-03T12:15:41;7.50;1.50
47576;DHT22;33304;52.456;13.328;2023-04-03T12:21:15;7.30;3.50
47576;DHT22;33304;52.456;13.328;2023-04-03T12:24:13;7.10;3.00
47576;DHT22;33304;52.456;13.328;2023-04-03T12:27:01;6.90;4.00
47576;DHT22;33304;52.456;13.328;2023-04-03T12:29:33;6.80;3.10
47576;DHT22;33304;52.456;13.328;2023-04-03T12:32:11;6.80;4.20
47576;DHT22;33304;52.456;13.328;2023-04-03T12:34:55;7.00;3.50
47576;DHT22;33304;52.456;13.328;2023-04-03T12:37:43;7.10;3.40
47576;DHT22;33304;52.456;13.328;2023-04-03T12:40:20;7.20;3.80
47576;DHT22;33304;52.456;13.328;2023-04-03T12:46:02;7.30;4.40
47576;DHT22;33304;52.456;13.328;2023-04-03T12:48:31;7.20;4.90
47576;DHT22;33304;52.456;13.328;2023-04-03T12:50:59;7.20;5.10
47576;DHT22;33304;52.456;13.328;2023-04-03T12:53:32;7.20;5.30
47576;DHT22;33304;52.456;13.328;2023-04-03T12:56:18;7.10;5.20
47576;DHT22;33304;52.456;13.328;2023-04-03T12:58:46;7.20;4.40
47576;DHT22;33304;52.456;13.328;2023-04-03T13:01:16;7.30;4.30
47576;DHT22;33304;52.456;13.328;2023-04-03T13:03:48;7.30;3.70
47576;DHT22;33304;52.456;13.328;2023-04-03T13:06:18;7.50;3.50
47576;DHT22;33304;52.456;13.328;2023-04-03T13:08:51;7.70;3.10
47576;DHT22;33304;52.456;13.328;2023-04-03T13:11:20;7.70;1.60
47576;DHT22;33304;52.456;13.328;2023-04-03T13:13:56;7.80;1.60
47576;DHT22;33304;52.456;13.328;2023-04-03T13:16:23;7.90;1.70
47576;DHT22;33304;52.456;13.328;2023-04-03T13:18:51;7.90;1.70
47576;DHT22;33304;52.456;13.328;2023-04-03T13:21:21;7.90;1.70
47576;DHT22;33304;52.456;13.328;2023-04-03T13:23:52;7.90;2.30
47576;DHT22;33304;52.456;13.328;2023-04-03T13:26:23;7.90;1.70
47576;DHT22;33304;52.456;13.328;2023-04-03T13:28:52;7.80;1.60
47576;DHT22;33304;52.456;13.328;2023-04-03T13:31:23;7.70;3.00
47576;DHT22;33304;52.456;13.328;2023-04-03T13:33:58;7.60;3.10
47576;DHT22;33304;52.456;13.328;2023-04-03T13:36:31;7.60;2.80
47576;DHT22;33304;52.456;13.328;2023-04-03T13:39:03;7.20;3.00
47576;DHT22;33304;52.456;13.328;2023-04-03T13:41:32;7.10;3.30
47576;DHT22;33304;52.456;13.328;2023-04-03T13:44:15;7.10;3.40
47576;DHT22;33304;52.456;13.328;2023-04-03T13:46:43;6.90;4.20
47576;DHT22;33304;52.456;13.328;2023-04-03T13:49:21;6.80;4.80
47576;DHT22;33304;52.456;13.328;2023-04-03T13:51:49;6.80;5.10
47576;DHT22;33304;52.456;13.328;2023-04-03T13:54:21;6.90;5.20
47576;DHT22;33304;52.456;13.328;2023-04-03T13:56:53;6.80;4.60
47576;DHT22;33304;52.456;13.328;2023-04-03T13:59:23;7.00;4.30
47576;DHT22;33304;52.456;13.328;2023-04-03T14:01:54;7.20;4.70
47576;DHT22;33304;52.456;13.328;2023-04-03T14:04:24;7.30;4.30
47576;DHT22;33304;52.456;13.328;2023-04-03T14:06:54;7.30;4.30
47576;DHT22;33304;52.456;13.328;2023-04-03T14:09:24;7.40;4.00
47576;DHT22;33304;52.456;13.328;2023-04-03T14:11:54;7.20;4.40
47576;DHT22;33304;52.456;13.328;2023-04-03T14:14:24;7.00;5.30
47576;DHT22;33304;52.456;13.328;2023-04-03T14:16:55;6.80;4.60
47576;DHT22;33304;52.456;13.328;2023-04-03T14:19:25;6.80;4.20
47576;DHT22;33304;52.456;13.328;2023-04-03T14:21:53;6.80;4.60
47576;DHT22;33304;52.456;13.328;2023-04-03T14:24:23;6.80;4.80
47576;DHT22;33304;52.456;13.328;2023-04-03T14:26:51;6.90;5.00
47576;DHT22;33304;52.456;13.328;2023-04-03T14:29:22;7.00;5.20
47576;DHT22;33304;52.456;13.328;2023-04-03T14:31:50;7.10;5.50
47576;DHT22;33304;52.456;13.328;2023-04-03T14:34:17;7.00;4.00
47576;DHT22;33304;52.456;13.328;2023-04-03T14:36:44;7.10;5.00
47576;DHT22;33304;52.456;13.328;2023-04-03T14:39:17;7.20;3.60
47576;DHT22;33304;52.456;13.328;2023-04-03T14:41:46;7.20;3.60
47576;DHT22;33304;52.456;13.328;2023-04-03T14:44:14;7.30;3.50
47576;DHT22;33304;52.456;13.328;2023-04-03T14:46:43;7.40;3.20
47576;DHT22;33304;52.456;13.328;2023-04-03T14:49:14;7.30;1.60
47576;DHT22;33304;52.456;13.328;2023-04-03T14:51:41;7.90;2.90
47576;DHT22;33304;52.456;13.328;2023-04-03T14:54:12;9.20;1.00
47576;DHT22;33304;52.456;13.328;2023-04-03T14:56:40;9.50;1.00
47576;DHT22;33304;52.456;13.328;2023-04-03T14:59:11;9.50;1.00
47576;DHT22;33304;52.456;13.328;2023-04-03T15:01:39;9.30;1.00
47576;DHT22;33304;52.456;13.328;2023-04-03T15:04:10;8.90;1.00
47576;DHT22;33304;52.456;13.328;2023-04-03T15:06:38;8.50;2.10
47576;DHT22;33304;52.456;13.328;2023-04-03T15:09:08;8.10;1.80
47576;DHT22;33304;52.456;13.328;2023-04-03T15:11:37;7.80;2.10
47576;DHT22;33304;52.456;13.328;2023-04-03T15:14:04;7.70;3.00
47576;DHT22;33304;52.456;13.328;2023-04-03T15:16:32;7.60;3.60
47576;DHT22;33304;52.456;13.328;2023-04-03T15:19:00;7.50;3.90
47576;DHT22;33304;52.456;13.328;2023-04-03T15:21:27;7.30;4.90
47576;DHT22;33304;52.456;13.328;2023-04-03T15:23:54;7.20;5.20
47576;DHT22;33304;52.456;13.328;2023-04-03T15:26:21;7.00;6.20
47576;DHT22;33304;52.456;13.328;2023-04-03T15:28:48;7.00;6.20
47576;DHT22;33304;52.456;13.328;2023-04-03T15:31:15;6.90;7.30
47576;DHT22;33304;52.456;13.328;2023-04-03T15:33:44;6.80;7.50
47576;DHT22;33304;52.456;13.328;2023-04-03T15:36:11;6.80;7.90
47576;DHT22;33304;52.456;13.328;2023-04-03T15:38:38;6.70;7.80
47576;DHT22;33304;52.456;13.328;2023-04-03T15:41:05;6.70;8.20
47576;DHT22;33304;52.456;13.328;2023-04-03T15:43:33;6.60;7.80
47576;DHT22;33304;52.456;13.328;2023-04-03T15:46:01;6.50;8.50
47576;DHT22;33304;52.456;13.328;2023-04-03T15:48:28;6.50;8.80
47576;DHT22;33304;52.456;13.328;2023-04-03T15:50:57;6.40;9.50
47576;DHT22;33304;52.456;13.328;2023-04-03T15:53:24;6.40;10.20
47576;DHT22;33304;52.456;13.328;2023-04-03T15:55:51;6.20;8.80
47576;DHT22;33304;52.456;13.328;2023-04-03T15:58:18;6.20;9.80
47576;DHT22;33304;52.456;13.328;2023-04-03T16:00:45;6.20;8.30
47576;DHT22;33304;52.456;13.328;2023-04-03T16:03:16;6.00;8.50
47576;DHT22;33304;52.456;13.328;2023-04-03T16:05:45;6.00;10.00
47576;DHT22;33304;52.456;13.328;2023-04-03T16:08:14;6.00;10.10
47576;DHT22;33304;52.456;13.328;2023-04-03T16:10:41;6.10;10.00
47576;DHT22;33304;52.456;13.328;2023-04-03T16:13:11;6.10;9.30